Observations for NANTES CHATEAU, France (LFRS)

LFRS 182100Z AUTO 06012KT CAVOK 05/01 Q1015 NOSIG   
LFRS 182030Z AUTO 06010KT 030V090 CAVOK 05/01 Q1016 NOSIG   
LFRS 182000Z AUTO 06012KT CAVOK 05/02 Q1016 NOSIG   
LFRS 181930Z AUTO 08009KT 050V110 CAVOK 06/02 Q1016 NOSIG   
LFRS 181900Z AUTO 06012KT CAVOK 06/02 Q1016 NOSIG   
LFRS 181830Z AUTO 07010KT CAVOK 06/03 Q1016 NOSIG   
LFRS 181800Z AUTO 06013KT CAVOK 07/03 Q1016 NOSIG   
LFRS 181730Z AUTO 06015KT CAVOK 07/03 Q1015 NOSIG   
LFRS 181700Z AUTO 06012KT 020V080 CAVOK 07/03 Q1015 TEMPO 06015G25KT
LFRS 181630Z AUTO 05011KT 010V070 CAVOK 08/03 Q1015 TEMPO 06015G25KT
LFRS 181600Z AUTO 05012KT CAVOK 09/04 Q1015 TEMPO 06015G25KT
LFRS 181530Z AUTO 05014KT CAVOK 09/04 Q1015 TEMPO 06015G25KT
LFRS 181500Z AUTO 05015KT CAVOK 09/04 Q1015 TEMPO 06015G25KT
LFRS 181430Z AUTO 05015KT CAVOK 10/04 Q1015 TEMPO 06015G25KT
LFRS 181400Z AUTO 06015KT CAVOK 10/04 Q1015 TEMPO 06015G25KT
LFRS 181330Z AUTO 05011KT CAVOK 10/04 Q1015 TEMPO 06015G25KT
LFRS 181300Z AUTO 05012KT 010V080 CAVOK 10/04 Q1016 TEMPO 06015G25KT
LFRS 181230Z AUTO 05013KT CAVOK 09/04 Q1016 TEMPO 06015G25KT
LFRS 181200Z AUTO 05010KT 010V080 CAVOK 09/04 Q1016 TEMPO 06015G25KT
LFRS 181130Z AUTO 06011KT CAVOK 09/04 Q1017 TEMPO 06015G25KT
LFRS 181100Z AUTO 06012KT CAVOK 07/03 Q1017 NOSIG   
LFRS 181030Z AUTO 06011KT 020V080 CAVOK 07/03 Q1018 NOSIG   
LFRS 181000Z AUTO 06012KT 020V080 CAVOK 06/03 Q1018 NOSIG   
LFRS 180930Z AUTO 05010KT CAVOK 06/03 Q1018 NOSIG   
LFRS 180900Z AUTO 06007KT 9000 NSC 05/03 Q1018 NOSIG
LFRS 180830Z AUTO 06009KT 030V090 9000 NSC 04/02 Q1018 NOSIG
LFRS 180800Z AUTO 05008KT 010V070 8000 NSC 04/02 Q1018 NOSIG
LFRS 180730Z AUTO 05006KT 010V080 8000 NSC 04/02 Q1018 NOSIG
LFRS 180700Z AUTO 05008KT 020V080 8000 NSC 04/03 Q1017 NOSIG
LFRS 180630Z AUTO 05007KT 8000 NSC 04/02 Q1017 NOSIG
LFRS 180600Z AUTO 06009KT 9000 NSC 04/02 Q1017 NOSIG
LFRS 180530Z AUTO 06010KT 8000 NSC 04/02 Q1017 NOSIG
LFRS 180500Z AUTO 06010KT 8000 NSC 04/02 Q1017 TEMPO BKN012 
LFRS 180430Z AUTO 06009KT 8000 NSC 04/02 Q1017 TEMPO BKN012 
LFRS 180400Z AUTO 06008KT 8000 NSC 04/02 Q1017 TEMPO BKN012 
LFRS 180330Z AUTO 08013KT 8000 NSC 04/02 Q1017 TEMPO BKN012 
LFRS 180300Z AUTO 08012KT 9000 FEW030 04/02 Q1017 TEMPO BKN012  
LFRS 180230Z AUTO 08013KT 9000 OVC028 05/02 Q1017 TEMPO BKN012  
LFRS 180200Z AUTO 07011KT 9000 SCT022 BKN035 04/02 Q1017 TEMPO BKN012   
LFRS 180130Z AUTO 07012KT 9000 SCT021 04/02 Q1016 TEMPO BKN012  
LFRS 180100Z AUTO 07011KT 9000 NSC 04/02 Q1016 TEMPO BKN012 
LFRS 180030Z AUTO 06011KT 8000 NSC 04/02 Q1017 TEMPO BKN012 
LFRS 180000Z AUTO 06013KT 9000 NSC 05/02 Q1016 TEMPO BKN012 
LFRS 172330Z AUTO 06013KT 9000 NSC 05/02 Q1017 TEMPO BKN012 
LFRS 172300Z AUTO 06011KT 9000 NSC 05/02 Q1017 TEMPO BKN007 
LFRS 172230Z AUTO 06012KT CAVOK 05/02 Q1017 TEMPO BKN007
LFRS 172200Z AUTO 06011KT CAVOK 05/02 Q1017 TEMPO BKN007
LFRS 172130Z AUTO 07015KT 9999 SCT023 06/02 Q1017 TEMPO BKN007  
LFRS 172100Z AUTO 08015KT 9999 OVC021 06/02 Q1018 TEMPO BKN007  
LFRS 172030Z AUTO 08017KT 9999 OVC021 06/03 Q1018 TEMPO BKN007